Time;durP1;ratioP1;P1;durP2;ratioP2;P2;SDS_P1;SDS_P2;PMS_P1;PMS_P2;Temp;Humidity;BMP_temperature;BMP_pressure;BME280_temperature;BME280_humidity;BME280_pressure;Samples;Min_cycle;Max_cycle;Signal;HPM_P1;HPM_P2
2021/08/01 00:00:56;;;;;;;7.30;4.45;;;15.70;99.90;;;;;;5090578;28;20629;-77
2021/08/01 00:03:23;;;;;;;6.30;4.60;;;15.70;99.90;;;;;;5090812;28;20209;-77
2021/08/01 00:05:50;;;;;;;5.05;3.70;;;15.70;99.90;;;;;;5091178;28;20205;-75
2021/08/01 00:08:17;;;;;;;7.53;4.53;;;15.60;99.90;;;;;;5090569;28;20198;-76
2021/08/01 00:10:44;;;;;;;4.63;3.80;;;15.70;99.90;;;;;;5090242;28;20669;-76
2021/08/01 00:13:11;;;;;;;3.63;3.33;;;15.70;99.90;;;;;;5090673;28;20247;-76
2021/08/01 00:15:38;;;;;;;4.78;4.28;;;15.70;99.90;;;;;;5090312;28;20274;-76
2021/08/01 00:18:07;;;;;;;4.22;3.65;;;15.70;99.90;;;;;;5090787;28;20213;-76
2021/08/01 00:20:34;;;;;;;4.53;3.30;;;15.70;99.90;;;;;;5090308;28;20205;-77
2021/08/01 00:23:02;;;;;;;6.78;3.63;;;15.70;99.90;;;;;;5090516;28;20205;-76
2021/08/01 00:25:29;;;;;;;4.47;3.47;;;15.70;99.90;;;;;;5089584;28;20213;-76
2021/08/01 00:27:56;;;;;;;5.72;3.67;;;15.60;99.90;;;;;;5090869;28;20209;-76
2021/08/01 00:30:23;;;;;;;5.85;3.40;;;15.60;99.90;;;;;;5090151;28;20205;-76
2021/08/01 00:32:50;;;;;;;4.35;3.58;;;15.60;99.90;;;;;;5090519;28;20259;-76
2021/08/01 00:35:19;;;;;;;6.30;3.42;;;15.70;99.90;;;;;;5090428;28;20274;-76
2021/08/01 00:37:46;;;;;;;3.70;3.28;;;15.60;99.90;;;;;;5090417;28;20263;-76
2021/08/01 00:40:17;;;;;;;6.88;4.22;;;15.60;99.90;;;;;;5083835;28;20208;-75
2021/08/01 00:42:44;;;;;;;5.10;3.95;;;15.60;99.90;;;;;;5088330;28;20284;-75
2021/08/01 00:45:11;;;;;;;4.72;3.17;;;15.60;99.90;;;;;;5090280;28;20205;-75
2021/08/01 00:47:38;;;;;;;5.15;3.63;;;15.60;99.90;;;;;;5090053;28;20213;-76
2021/08/01 00:50:08;;;;;;;3.53;3.22;;;15.60;99.90;;;;;;5090487;28;20789;-76
2021/08/01 00:52:37;;;;;;;5.10;2.88;;;15.60;99.90;;;;;;5089576;28;20201;-75
2021/08/01 00:55:05;;;;;;;3.67;2.90;;;15.60;99.90;;;;;;5090030;28;20576;-75
2021/08/01 00:57:32;;;;;;;4.13;3.13;;;15.60;99.90;;;;;;5089711;28;20259;-76
2021/08/01 00:59:59;;;;;;;5.28;2.90;;;15.70;99.90;;;;;;5090333;28;20206;-75
2021/08/01 01:02:35;;;;;;;5.55;3.50;;;15.70;99.90;;;;;;5089843;28;20202;-76
2021/08/01 01:05:08;;;;;;;3.42;3.03;;;15.70;99.90;;;;;;5090204;28;20211;-75
2021/08/01 01:07:42;;;;;;;4.78;2.53;;;15.60;99.90;;;;;;5089791;28;20209;-75
2021/08/01 01:10:12;;;;;;;5.45;3.05;;;15.60;99.90;;;;;;5093066;28;20210;-75
2021/08/01 01:12:42;;;;;;;5.20;2.75;;;15.70;99.90;;;;;;5093424;28;20667;-76
2021/08/01 01:15:13;;;;;;;5.03;3.15;;;15.70;99.90;;;;;;5093632;28;20217;-75
2021/08/01 01:17:45;;;;;;;3.78;2.47;;;15.70;99.90;;;;;;5093395;28;20250;-75
2021/08/01 01:20:27;;;;;;;5.00;3.30;;;15.60;99.90;;;;;;5094258;28;20209;-75
2021/08/01 01:23:09;;;;;;;6.07;2.90;;;15.60;99.90;;;;;;5093643;28;20253;-75
2021/08/01 01:25:42;;;;;;;5.25;3.10;;;15.60;99.90;;;;;;5093423;28;20209;-75
2021/08/01 01:28:15;;;;;;;3.10;2.80;;;15.70;99.90;;;;;;5093456;28;20213;-76
2021/08/01 01:30:59;;;;;;;4.32;2.72;;;15.60;99.90;;;;;;5093561;28;20677;-75
2021/08/01 01:33:30;;;;;;;3.95;2.47;;;15.60;99.90;;;;;;5092890;28;20723;-75
2021/08/01 01:36:01;;;;;;;3.13;2.78;;;15.60;99.90;;;;;;5093491;28;20282;-75
2021/08/01 01:38:30;;;;;;;3.08;2.78;;;15.60;99.90;;;;;;5092655;28;20206;-75
2021/08/01 01:40:57;;;;;;;3.50;3.00;;;15.60;99.90;;;;;;5093533;28;20214;-75
2021/08/01 01:43:25;;;;;;;2.92;2.55;;;15.70;99.90;;;;;;5093041;28;20201;-75
2021/08/01 01:45:54;;;;;;;4.03;2.60;;;15.70;99.90;;;;;;5093599;28;20205;-75
2021/08/01 01:48:21;;;;;;;4.53;2.65;;;15.70;99.90;;;;;;5092598;28;20209;-75
2021/08/01 01:50:49;;;;;;;3.17;2.22;;;15.70;99.90;;;;;;5093134;28;20266;-75
2021/08/01 01:53:16;;;;;;;3.47;2.50;;;15.60;99.90;;;;;;5093520;28;20206;-75
2021/08/01 01:55:45;;;;;;;2.55;2.30;;;15.50;99.90;;;;;;5092959;28;20298;-75
2021/08/01 01:58:12;;;;;;;3.60;2.20;;;15.60;99.90;;;;;;5093448;28;20240;-75
2021/08/01 02:00:39;;;;;;;2.40;1.77;;;15.60;99.90;;;;;;5089974;28;20209;-75
2021/08/01 02:03:06;;;;;;;2.22;1.95;;;15.60;99.90;;;;;;5081864;28;20213;-75
2021/08/01 02:05:33;;;;;;;2.58;2.38;;;15.70;99.90;;;;;;5092641;28;20205;-75
2021/08/01 02:08:01;;;;;;;2.58;1.80;;;15.70;99.90;;;;;;5093107;28;20611;-75
2021/08/01 02:10:35;;;;;;;3.35;2.40;;;15.70;99.90;;;;;;5092799;28;20206;-75
2021/08/01 02:13:07;;;;;;;4.35;1.88;;;15.60;99.90;;;;;;5093294;28;20209;-75
2021/08/01 02:15:42;;;;;;;3.35;2.08;;;15.60;99.90;;;;;;5092507;28;20221;-75
2021/08/01 02:18:11;;;;;;;2.85;2.40;;;15.50;99.90;;;;;;5093001;28;20334;-75
2021/08/01 02:20:42;;;;;;;8.02;1.92;;;15.50;99.90;;;;;;5092086;28;20213;-75
2021/08/01 02:23:11;;;;;;;2.75;2.50;;;15.50;99.90;;;;;;5092650;28;20206;-75
2021/08/01 02:25:39;;;;;;;5.30;2.22;;;15.50;99.90;;;;;;5092235;28;20225;-75
2021/08/01 02:28:08;;;;;;;4.20;2.30;;;15.50;99.90;;;;;;5092504;28;20318;-75
2021/08/01 02:30:37;;;;;;;4.88;2.70;;;15.50;99.90;;;;;;5092059;28;20300;-75
2021/08/01 02:33:05;;;;;;;2.50;2.22;;;15.40;99.90;;;;;;5092470;28;20205;-75
2021/08/01 02:35:32;;;;;;;4.57;2.30;;;15.40;99.90;;;;;;5091817;28;20287;-76
2021/08/01 02:38:02;;;;;;;4.45;2.90;;;15.30;99.90;;;;;;5092311;28;20209;-75
2021/08/01 02:40:32;;;;;;;6.55;2.50;;;15.30;99.90;;;;;;5092111;28;20217;-75
2021/08/01 02:43:02;;;;;;;3.72;2.42;;;15.30;99.90;;;;;;5091979;28;20312;-75
2021/08/01 02:45:31;;;;;;;3.00;2.70;;;15.30;99.90;;;;;;5092187;28;20592;-75
2021/08/01 02:48:00;;;;;;;3.67;3.38;;;15.30;99.90;;;;;;5092198;28;20201;-75
2021/08/01 02:50:29;;;;;;;4.82;3.20;;;15.30;99.90;;;;;;5091466;28;20266;-75
2021/08/01 02:52:59;;;;;;;4.35;2.30;;;15.20;99.90;;;;;;5092252;28;20255;-75
2021/08/01 02:55:29;;;;;;;4.15;2.90;;;15.10;99.90;;;;;;5091420;28;20282;-74
2021/08/01 02:57:57;;;;;;;4.38;3.03;;;15.20;99.90;;;;;;5091968;28;20282;-75
2021/08/01 03:00:25;;;;;;;3.17;2.20;;;15.20;99.90;;;;;;5091169;28;20558;-74
2021/08/01 03:02:55;;;;;;;3.50;2.83;;;15.20;99.90;;;;;;5091887;28;20263;-74
2021/08/01 03:05:22;;;;;;;2.92;2.42;;;15.10;99.90;;;;;;5091348;28;20209;-74
2021/08/01 03:07:50;;;;;;;3.05;2.72;;;15.10;99.90;;;;;;5091405;28;20292;-74
2021/08/01 03:10:19;;;;;;;4.57;3.00;;;15.20;99.90;;;;;;5092416;28;20214;-74
2021/08/01 03:12:47;;;;;;;6.20;2.53;;;15.20;99.90;;;;;;5091739;28;20266;-74
2021/08/01 03:15:14;;;;;;;5.28;2.67;;;15.30;99.90;;;;;;5092096;28;20278;-74
2021/08/01 03:17:42;;;;;;;4.65;2.92;;;15.30;99.90;;;;;;5091270;28;20205;-74
2021/08/01 03:20:12;;;;;;;3.25;2.33;;;15.30;99.90;;;;;;5082061;28;20210;-75
2021/08/01 03:22:39;;;;;;;2.70;2.45;;;15.30;99.90;;;;;;5086544;28;20698;-75
2021/08/01 03:25:06;;;;;;;2.70;2.47;;;15.30;99.90;;;;;;5091441;28;20247;-75
2021/08/01 03:27:33;;;;;;;4.72;3.00;;;15.20;99.90;;;;;;5091020;28;20205;-74
2021/08/01 03:30:00;;;;;;;4.85;2.83;;;15.20;99.90;;;;;;5091693;28;20279;-74
2021/08/01 03:32:27;;;;;;;3.17;2.85;;;15.20;99.90;;;;;;5090336;28;20209;-74
2021/08/01 03:34:54;;;;;;;3.03;2.72;;;15.20;99.90;;;;;;5090646;28;20664;-74
2021/08/01 03:37:26;;;;;;;5.22;3.15;;;15.20;99.90;;;;;;5090779;28;20627;-74
2021/08/01 03:39:53;;;;;;;5.53;3.22;;;15.20;99.90;;;;;;5091003;28;20236;-73
2021/08/01 03:42:20;;;;;;;6.65;3.40;;;15.20;99.90;;;;;;5091169;28;20209;-74
2021/08/01 03:44:47;;;;;;;5.03;3.03;;;15.20;99.90;;;;;;5091415;28;20275;-74
2021/08/01 03:47:14;;;;;;;4.95;2.88;;;15.20;99.90;;;;;;5082958;28;20268;-74
2021/08/01 03:49:43;;;;;;;5.80;2.95;;;15.20;99.90;;;;;;5084565;28;20209;-74
2021/08/01 03:52:10;;;;;;;4.68;3.13;;;15.20;99.90;;;;;;5090686;28;20669;-75
2021/08/01 03:54:39;;;;;;;2.92;2.65;;;15.20;99.90;;;;;;5090884;28;20221;-74
2021/08/01 03:57:06;;;;;;;8.82;3.67;;;15.20;99.90;;;;;;5090842;28;20306;-75
2021/08/01 03:59:35;;;;;;;4.65;3.20;;;15.20;99.90;;;;;;5090738;28;20205;-74
2021/08/01 04:02:02;;;;;;;6.00;3.08;;;15.20;99.90;;;;;;5090503;28;20201;-75
2021/08/01 04:04:29;;;;;;;7.22;3.55;;;15.20;99.90;;;;;;5076643;28;20743;-75
2021/08/01 04:06:56;;;;;;;6.60;3.17;;;15.30;99.90;;;;;;5091106;28;20209;-75
2021/08/01 04:09:23;;;;;;;4.13;2.70;;;15.20;99.90;;;;;;5090299;28;20201;-74
2021/08/01 04:11:51;;;;;;;4.95;2.97;;;15.10;99.90;;;;;;5090727;28;20205;-74
2021/08/01 04:14:18;;;;;;;3.22;2.95;;;15.10;99.90;;;;;;5090793;28;20231;-74
2021/08/01 04:16:45;;;;;;;4.82;2.30;;;15.10;99.90;;;;;;5081404;28;20291;-75
2021/08/01 04:19:13;;;;;;;4.50;2.17;;;15.10;99.90;;;;;;5086254;28;20255;-74
2021/08/01 04:21:41;;;;;;;4.25;2.88;;;15.20;99.90;;;;;;5090525;28;20241;-74
2021/08/01 04:24:08;;;;;;;4.85;2.25;;;15.20;99.90;;;;;;5090691;28;20209;-75
2021/08/01 04:26:35;;;;;;;2.97;2.50;;;15.20;99.90;;;;;;5062321;28;20644;-75
2021/08/01 04:29:04;;;;;;;4.50;3.20;;;15.20;99.90;;;;;;5090492;28;20205;-74
2021/08/01 04:31:31;;;;;;;5.72;2.78;;;15.20;99.90;;;;;;5089922;28;20197;-74
2021/08/01 04:33:58;;;;;;;6.90;2.60;;;15.30;99.90;;;;;;5090779;28;20255;-74
2021/08/01 04:36:25;;;;;;;3.50;2.53;;;15.10;99.90;;;;;;5089882;28;20286;-73
2021/08/01 04:38:52;;;;;;;2.55;2.28;;;15.10;99.90;;;;;;5090421;28;20668;-74
2021/08/01 04:41:20;;;;;;;5.47;2.67;;;15.20;99.90;;;;;;5090219;28;20255;-75
2021/08/01 04:43:47;;;;;;;4.47;2.45;;;15.10;99.90;;;;;;5093126;28;20205;-74
2021/08/01 04:46:15;;;;;;;5.47;3.05;;;15.20;99.90;;;;;;5094781;28;20561;-74
2021/08/01 04:48:42;;;;;;;4.47;3.60;;;15.30;99.90;;;;;;5066910;28;20250;-74
2021/08/01 04:51:09;;;;;;;6.45;2.42;;;15.20;99.90;;;;;;5094722;28;20209;-74
2021/08/01 04:53:37;;;;;;;3.28;2.92;;;15.30;99.90;;;;;;5093562;28;20738;-75
2021/08/01 04:56:08;;;;;;;3.95;2.83;;;15.30;99.90;;;;;;5094133;28;20294;-74
2021/08/01 04:58:35;;;;;;;5.75;2.80;;;15.30;99.90;;;;;;5094042;28;20267;-74
2021/08/01 05:01:02;;;;;;;3.70;2.55;;;15.20;99.90;;;;;;5093800;28;20345;-74
2021/08/01 05:03:30;;;;;;;5.30;2.30;;;15.20;99.90;;;;;;5094046;28;20579;-74
2021/08/01 05:05:57;;;;;;;2.17;1.98;;;15.20;99.90;;;;;;5094087;28;20197;-74
2021/08/01 05:08:24;;;;;;;3.65;2.78;;;15.20;99.90;;;;;;5093699;28;20632;-74
2021/08/01 05:10:51;;;;;;;3.20;2.50;;;15.20;99.90;;;;;;5093916;28;20262;-74
2021/08/01 05:13:18;;;;;;;3.35;2.85;;;15.20;99.90;;;;;;5094340;28;20210;-74
2021/08/01 05:15:45;;;;;;;4.07;2.67;;;15.30;99.90;;;;;;5093870;28;20229;-74
2021/08/01 05:18:12;;;;;;;4.05;2.67;;;15.20;99.90;;;;;;5094218;28;20288;-74
2021/08/01 05:20:43;;;;;;;3.45;2.63;;;15.20;99.90;;;;;;5093463;28;20677;-74
2021/08/01 05:23:10;;;;;;;2.53;2.15;;;15.20;99.90;;;;;;5093932;28;20248;-74
2021/08/01 05:25:37;;;;;;;5.90;2.20;;;15.20;99.90;;;;;;5093520;28;20326;-76
2021/08/01 05:28:05;;;;;;;6.60;3.20;;;15.20;99.90;;;;;;5093693;28;20202;-77
2021/08/01 05:30:32;;;;;;;6.18;2.63;;;15.20;99.90;;;;;;5093401;28;20201;-74
2021/08/01 05:32:59;;;;;;;8.02;2.45;;;15.30;99.90;;;;;;5093688;28;20365;-74
2021/08/01 05:35:26;;;;;;;4.63;2.40;;;15.30;99.90;;;;;;5093246;28;20205;-74
2021/08/01 05:37:54;;;;;;;4.65;2.60;;;15.30;99.90;;;;;;5093307;28;20326;-74
2021/08/01 05:40:21;;;;;;;5.28;2.55;;;15.40;99.90;;;;;;5093245;28;20205;-74
2021/08/01 05:42:48;;;;;;;5.70;3.17;;;15.50;99.90;;;;;;5093702;28;20206;-74
2021/08/01 05:45:15;;;;;;;3.20;2.47;;;15.40;99.90;;;;;;5093295;28;20201;-74
2021/08/01 05:47:42;;;;;;;2.40;2.20;;;15.30;99.90;;;;;;5093206;28;20699;-74
2021/08/01 05:50:09;;;;;;;4.68;2.38;;;15.20;99.90;;;;;;5092843;28;20251;-74
2021/08/01 05:52:36;;;;;;;4.47;2.85;;;15.20;99.90;;;;;;5093024;28;20208;-74
2021/08/01 05:55:06;;;;;;;4.82;2.78;;;15.50;99.90;;;;;;5080231;28;20210;-74
2021/08/01 05:57:33;;;;;;;3.13;2.78;;;15.70;99.90;;;;;;5092027;28;20284;-75
2021/08/01 06:00:00;;;;;;;2.30;2.08;;;16.00;99.90;;;;;;5093104;28;20333;-74
2021/08/01 06:02:26;;;;;;;5.55;2.22;;;16.10;99.90;;;;;;5092627;28;20267;-74
2021/08/01 06:04:53;;;;;;;4.30;3.00;;;16.00;99.90;;;;;;5092972;28;20206;-74
2021/08/01 06:07:20;;;;;;;3.47;2.50;;;16.00;99.90;;;;;;5092387;28;20676;-74
2021/08/01 06:09:48;;;;;;;6.40;2.53;;;16.00;99.90;;;;;;5093248;28;20266;-74
2021/08/01 06:12:16;;;;;;;3.17;2.45;;;16.00;99.90;;;;;;5092918;28;20259;-74
2021/08/01 06:14:43;;;;;;;7.85;3.95;;;16.00;99.90;;;;;;5092973;28;20213;-74
2021/08/01 06:17:11;;;;;;;2.28;2.08;;;16.10;99.90;;;;;;5093076;28;20643;-74
2021/08/01 06:19:38;;;;;;;4.38;2.60;;;16.00;99.90;;;;;;5092014;28;20312;-74
2021/08/01 06:22:05;;;;;;;4.57;2.47;;;16.10;99.90;;;;;;5092716;28;20623;-74
2021/08/01 06:24:32;;;;;;;6.43;3.22;;;16.30;99.90;;;;;;5092134;28;20282;-74
2021/08/01 06:26:59;;;;;;;4.18;2.40;;;16.40;99.90;;;;;;5092405;28;20217;-75
2021/08/01 06:29:27;;;;;;;3.60;2.38;;;16.40;99.90;;;;;;5092215;28;20255;-74
2021/08/01 06:31:54;;;;;;;4.40;2.17;;;16.50;99.90;;;;;;5092447;28;20730;-74
2021/08/01 06:34:23;;;;;;;3.42;2.03;;;16.70;99.90;;;;;;5091890;28;20213;-75
2021/08/01 06:36:51;;;;;;;2.22;1.92;;;17.00;99.90;;;;;;5092593;28;20287;-74
2021/08/01 06:39:18;;;;;;;2.92;2.05;;;17.20;99.90;;;;;;5092679;28;20296;-74
2021/08/01 06:41:45;;;;;;;2.40;2.20;;;17.30;99.90;;;;;;5092444;28;20209;-74
2021/08/01 06:44:12;;;;;;;6.15;2.60;;;17.30;99.90;;;;;;5092451;28;20217;-74
2021/08/01 06:46:40;;;;;;;3.30;1.80;;;17.20;99.90;;;;;;5091211;28;20266;-74
2021/08/01 06:49:07;;;;;;;4.95;2.90;;;17.10;99.90;;;;;;5092209;28;20595;-74
2021/08/01 06:51:34;;;;;;;5.68;2.65;;;16.90;99.90;;;;;;5091998;28;20274;-74
2021/08/01 06:54:01;;;;;;;4.80;2.60;;;16.90;99.90;;;;;;5091954;28;20580;-74
2021/08/01 06:56:28;;;;;;;4.40;3.08;;;17.00;99.90;;;;;;5091545;28;20225;-74
2021/08/01 06:58:55;;;;;;;5.05;2.67;;;17.30;99.90;;;;;;5091928;28;20259;-74
2021/08/01 07:01:22;;;;;;;7.55;2.50;;;17.40;99.90;;;;;;5091633;28;20221;-74
2021/08/01 07:03:50;;;;;;;3.85;2.72;;;17.20;99.90;;;;;;5091952;28;20205;-74
2021/08/01 07:06:17;;;;;;;2.30;2.10;;;17.10;99.90;;;;;;5091106;28;20641;-74
2021/08/01 07:08:44;;;;;;;3.28;2.53;;;17.10;99.90;;;;;;5091909;28;20210;-74
2021/08/01 07:11:11;;;;;;;3.90;2.22;;;17.10;99.90;;;;;;5091603;28;20201;-74
2021/08/01 07:13:38;;;;;;;5.35;2.08;;;17.30;99.90;;;;;;5091294;28;20210;-75
2021/08/01 07:16:06;;;;;;;3.30;2.22;;;17.20;99.90;;;;;;5091374;28;20202;-75
2021/08/01 07:18:33;;;;;;;5.70;2.20;;;17.40;99.90;;;;;;5091289;28;20666;-74
2021/08/01 07:21:02;;;;;;;3.63;2.33;;;17.50;99.90;;;;;;5091337;28;20205;-74
2021/08/01 07:23:28;;;;;;;5.78;2.10;;;17.40;99.90;;;;;;5091180;28;20212;-74
2021/08/01 07:25:55;;;;;;;7.63;2.42;;;17.40;99.90;;;;;;5091148;28;20270;-74
2021/08/01 07:28:36;;;;;;;3.38;2.08;;;17.50;99.90;;;;;;5108215;27;20622;-76
2021/08/01 07:31:03;;;;;;;5.10;2.45;;;17.60;99.90;;;;;;5107985;28;20205;-76
2021/08/01 07:33:30;;;;;;;3.47;2.55;;;17.80;99.90;;;;;;5108101;28;20269;-76
2021/08/01 07:35:57;;;;;;;3.25;2.58;;;18.10;99.90;;;;;;5108362;28;20205;-76
2021/08/01 07:38:25;;;;;;;2.90;2.25;;;18.10;99.90;;;;;;5107422;28;20704;-76
2021/08/01 07:40:52;;;;;;;4.55;2.30;;;18.50;99.90;;;;;;5107878;28;20232;-76
2021/08/01 07:43:19;;;;;;;6.85;2.75;;;18.50;99.90;;;;;;5108040;28;20258;-76
2021/08/01 07:45:48;;;;;;;3.83;2.35;;;18.50;99.90;;;;;;5108655;28;20212;-76
2021/08/01 07:48:15;;;;;;;4.25;2.97;;;18.50;99.90;;;;;;5108167;28;20228;-76
2021/08/01 07:50:42;;;;;;;5.32;2.28;;;18.60;99.90;;;;;;5107577;28;20284;-76
2021/08/01 07:53:09;;;;;;;5.65;1.95;;;19.00;99.90;;;;;;5107991;28;20606;-76
2021/08/01 07:55:37;;;;;;;4.70;2.95;;;18.70;99.90;;;;;;5106944;28;20209;-75
2021/08/01 07:58:04;;;;;;;4.15;2.10;;;18.80;99.90;;;;;;5108122;28;20240;-76
2021/08/01 08:00:31;;;;;;;5.18;2.90;;;19.00;99.90;;;;;;5107388;28;20205;-76
2021/08/01 08:02:59;;;;;;;3.25;2.30;;;19.00;99.90;;;;;;5107888;28;20214;-76
2021/08/01 08:05:26;;;;;;;4.00;1.95;;;19.10;99.90;;;;;;5107074;28;20258;-76
2021/08/01 08:07:54;;;;;;;5.32;2.50;;;19.50;99.90;;;;;;5107561;28;20225;-76
2021/08/01 08:10:22;;;;;;;2.50;2.13;;;19.90;99.90;;;;;;5106984;28;20676;-76
2021/08/01 08:12:49;;;;;;;3.38;2.45;;;19.60;99.90;;;;;;5107404;28;20208;-76
2021/08/01 08:15:16;;;;;;;3.10;1.83;;;19.50;99.90;;;;;;5108018;28;20258;-76
2021/08/01 08:17:44;;;;;;;2.53;2.15;;;19.70;99.90;;;;;;5093055;28;20204;-75
2021/08/01 08:20:13;;;;;;;2.95;2.25;;;19.30;99.90;;;;;;5107238;28;20201;-76
2021/08/01 08:22:41;;;;;;;3.58;1.77;;;19.00;99.90;;;;;;5106947;28;20208;-75
2021/08/01 08:25:09;;;;;;;2.42;2.10;;;19.30;99.90;;;;;;5107144;28;20205;-76
2021/08/01 08:27:36;;;;;;;1.95;1.85;;;20.10;99.90;;;;;;5106655;28;20241;-76
2021/08/01 08:30:04;;;;;;;2.83;1.80;;;20.40;99.90;;;;;;5107206;28;20254;-76
2021/08/01 08:32:33;;;;;;;2.00;1.65;;;20.60;99.90;;;;;;5106630;28;20205;-76
2021/08/01 08:35:00;;;;;;;4.10;2.22;;;20.90;99.90;;;;;;5106993;28;20284;-76
2021/08/01 08:37:28;;;;;;;2.78;1.95;;;21.00;99.90;;;;;;5106348;28;20209;-76
2021/08/01 08:39:55;;;;;;;2.28;1.60;;;21.00;99.90;;;;;;5093166;28;20263;-76
2021/08/01 08:42:22;;;;;;;4.18;2.35;;;20.30;99.90;;;;;;5093046;28;20205;-76
2021/08/01 08:44:49;;;;;;;2.67;1.98;;;19.40;99.90;;;;;;5093365;28;20258;-75
2021/08/01 08:47:20;;;;;;;4.35;2.47;;;18.90;99.90;;;;;;5093483;28;20294;-76
2021/08/01 08:49:49;;;;;;;4.00;2.00;;;19.40;99.90;;;;;;5093167;28;20209;-76
2021/08/01 08:52:17;;;;;;;3.70;1.73;;;20.00;99.90;;;;;;5093318;28;20294;-76
2021/08/01 08:54:49;;;;;;;3.60;1.65;;;20.60;99.90;;;;;;5093332;28;20645;-76
2021/08/01 08:57:24;;;;;;;3.33;1.98;;;20.60;99.90;;;;;;5090374;28;20261;-76
2021/08/01 08:59:59;;;;;;;4.85;2.08;;;20.60;99.90;;;;;;5083015;28;20247;-76
2021/08/01 09:02:26;;;;;;;4.20;1.77;;;20.60;99.90;;;;;;5092331;28;20205;-76
2021/08/01 09:04:53;;;;;;;5.38;1.77;;;20.70;99.90;;;;;;5093276;28;20206;-76
2021/08/01 09:07:20;;;;;;;2.72;1.77;;;21.30;99.90;;;;;;5092262;28;20221;-76
2021/08/01 09:09:48;;;;;;;4.65;1.90;;;21.70;99.90;;;;;;5093218;28;20254;-76
2021/08/01 09:12:15;;;;;;;1.13;1.02;;;22.50;99.90;;;;;;5092855;28;20278;-76
2021/08/01 09:14:42;;;;;;;3.88;1.92;;;23.60;99.90;;;;;;5092749;28;20214;-76
2021/08/01 09:17:09;;;;;;;2.85;1.40;;;23.80;99.90;;;;;;5092753;28;20214;-76
2021/08/01 09:19:39;;;;;;;2.65;1.70;;;22.50;99.90;;;;;;5091972;28;20202;-76
2021/08/01 09:22:15;;;;;;;2.60;1.52;;;21.70;99.90;;;;;;5092345;28;20214;-76
2021/08/01 09:24:42;;;;;;;2.78;1.70;;;21.40;99.90;;;;;;5092597;28;20201;-76
2021/08/01 09:27:26;;;;;;;3.25;1.67;;;21.70;99.90;;;;;;5092353;28;20229;-76
2021/08/01 09:29:53;;;;;;;1.90;1.70;;;21.40;99.90;;;;;;5092414;28;20212;-76
2021/08/01 09:32:21;;;;;;;4.05;2.03;;;21.00;99.90;;;;;;5092381;28;20587;-76
2021/08/01 09:34:49;;;;;;;1.80;1.42;;;20.70;99.90;;;;;;5078238;28;20197;-76
2021/08/01 09:37:31;;;;;;;5.40;1.70;;;20.50;99.90;;;;;;5092303;28;20734;-77
2021/08/01 09:40:12;;;;;;;2.03;1.52;;;20.20;99.90;;;;;;5091969;28;20292;-76
2021/08/01 09:42:45;;;;;;;2.75;1.48;;;20.00;99.90;;;;;;5092071;28;20286;-76
2021/08/01 09:45:14;;;;;;;4.10;2.47;;;19.70;99.90;;;;;;5092279;28;20205;-76
2021/08/01 09:47:42;;;;;;;3.08;2.05;;;19.50;99.90;;;;;;5091661;28;20229;-76
2021/08/01 09:50:09;;;;;;;2.35;1.90;;;19.60;99.90;;;;;;5090652;28;20205;-76
2021/08/01 09:52:37;;;;;;;4.03;1.77;;;19.90;99.90;;;;;;5091800;28;20708;-76
2021/08/01 09:55:04;;;;;;;2.22;1.50;;;20.20;99.90;;;;;;5092212;28;20296;-76
2021/08/01 09:57:31;;;;;;;2.05;1.40;;;20.80;99.90;;;;;;5091521;28;20294;-76
2021/08/01 10:00:08;;;;;;;2.05;1.85;;;21.10;99.90;;;;;;5091845;28;20255;-76
2021/08/01 10:02:37;;;;;;;3.20;1.77;;;21.10;99.90;;;;;;5091119;28;20205;-76
2021/08/01 10:05:16;;;;;;;2.55;1.75;;;21.20;99.90;;;;;;5091905;28;20205;-76
2021/08/01 10:07:44;;;;;;;3.28;1.88;;;21.80;99.90;;;;;;5091403;28;20278;-76
2021/08/01 10:10:18;;;;;;;1.65;1.55;;;23.00;99.90;;;;;;5091808;28;20208;-75
2021/08/01 10:12:46;;;;;;;3.05;1.45;;;25.80;99.90;;;;;;5091427;28;20205;-76
2021/08/01 10:15:14;;;;;;;2.65;1.50;;;28.40;99.90;;;;;;5092174;28;20300;-76
2021/08/01 10:17:42;;;;;;;2.58;1.83;;;26.80;99.90;;;;;;5091014;28;20673;-76
2021/08/01 10:20:09;;;;;;;2.15;1.70;;;28.40;99.90;;;;;;5091506;28;20201;-76
2021/08/01 10:22:38;;;;;;;1.80;1.17;;;31.50;99.90;;;;;;5090940;28;20292;-76
2021/08/01 10:25:10;;;;;;;1.65;1.10;;;29.70;99.90;;;;;;5083815;28;20206;-76
2021/08/01 10:27:43;;;;;;;2.85;1.50;;;26.90;99.90;;;;;;5085276;28;20271;-76
2021/08/01 10:30:18;;;;;;;2.05;1.30;;;24.60;99.90;;;;;;5091268;28;20703;-76
2021/08/01 10:32:48;;;;;;;2.10;1.65;;;23.80;99.90;;;;;;5091625;28;20205;-76
2021/08/01 10:35:17;;;;;;;1.42;1.33;;;23.50;99.90;;;;;;5091401;28;20209;-76
2021/08/01 10:37:53;;;;;;;1.58;1.40;;;23.60;99.90;;;;;;5091163;28;20216;-76
2021/08/01 10:40:22;;;;;;;4.13;1.60;;;23.30;99.90;;;;;;5065418;28;20284;-76
2021/08/01 10:42:51;;;;;;;1.52;1.42;;;23.20;99.90;;;;;;5091366;28;20250;-76
2021/08/01 10:45:20;;;;;;;2.25;1.42;;;22.70;99.90;;;;;;5091151;28;20622;-76
2021/08/01 10:47:51;;;;;;;2.65;1.45;;;22.40;99.90;;;;;;5090761;28;20228;-77
2021/08/01 10:50:19;;;;;;;1.45;1.35;;;22.30;99.90;;;;;;5090497;28;20241;-76
2021/08/01 10:52:46;;;;;;;4.90;1.95;;;22.40;99.90;;;;;;5091649;28;20266;-76
2021/08/01 10:55:24;;;;;;;3.47;1.92;;;23.20;99.90;;;;;;5091547;28;20267;-76
2021/08/01 10:58:10;;;;;;;2.53;1.42;;;23.10;99.90;;;;;;5065979;28;20205;-76
2021/08/01 11:01:01;;;;;;;3.15;1.65;;;23.30;99.90;;;;;;5090389;28;20205;-76
2021/08/01 11:03:29;;;;;;;2.08;1.63;;;23.50;99.90;;;;;;5087471;28;20247;-76
2021/08/01 11:05:56;;;;;;;1.65;1.55;;;23.80;99.90;;;;;;5090450;28;20648;-76
2021/08/01 11:08:24;;;;;;;4.20;1.38;;;23.70;99.90;;;;;;5090441;28;20233;-75
2021/08/01 11:11:12;;;;;;;2.20;1.42;;;23.50;99.90;;;;;;5090498;28;20672;-77
2021/08/01 11:13:42;;;;;;;2.72;1.52;;;23.40;99.90;;;;;;5090235;28;20210;-75
2021/08/01 11:16:12;;;;;;;2.10;1.67;;;23.50;99.90;;;;;;5090534;28;20204;-76
2021/08/01 11:18:41;;;;;;;1.52;1.27;;;23.30;99.90;;;;;;5089929;28;20206;-76
2021/08/01 11:21:10;;;;;;;1.80;1.70;;;22.80;99.90;;;;;;5090527;28;20263;-75
2021/08/01 11:24:09;;;;;;;2.25;2.05;;;22.70;99.90;;;;;;5090274;28;20304;-73
2021/08/01 11:26:38;;;;;;;3.40;2.38;;;23.40;99.90;;;;;;5062339;28;20688;-74
2021/08/01 11:29:10;;;;;;;3.50;1.48;;;23.60;99.90;;;;;;5090332;28;20225;-74
2021/08/01 11:31:39;;;;;;;3.95;1.50;;;23.90;99.90;;;;;;5089917;28;20679;-75
2021/08/01 11:34:23;;;;;;;2.75;1.60;;;23.60;99.90;;;;;;5090566;28;20658;-74
2021/08/01 11:37:10;;;;;;;1.13;1.02;;;23.60;99.90;;;;;;5063335;28;20202;-74
2021/08/01 11:39:51;;;;;;;1.52;1.00;;;23.60;99.90;;;;;;5089900;28;20209;-74
2021/08/01 11:42:23;;;;;;;2.17;1.17;;;23.20;99.90;;;;;;5090501;28;20247;-74
2021/08/01 11:44:57;;;;;;;1.42;1.27;;;23.00;99.90;;;;;;5090136;28;20726;-74
2021/08/01 11:47:27;;;;;;;1.35;1.25;;;23.00;99.90;;;;;;5089604;28;20672;-74
2021/08/01 11:49:55;;;;;;;1.92;1.33;;;22.90;99.90;;;;;;5090062;28;20296;-74
2021/08/01 11:52:41;;;;;;;1.60;1.50;;;22.80;99.90;;;;;;5089900;28;20209;-75
2021/08/01 11:55:09;;;;;;;3.63;1.52;;;22.70;99.90;;;;;;5090446;28;20201;-74
2021/08/01 11:57:36;;;;;;;1.55;1.38;;;22.60;99.90;;;;;;5089792;28;20239;-74
2021/08/01 12:00:05;;;;;;;2.72;1.48;;;22.30;99.90;;;;;;5090484;28;20205;-74
2021/08/01 12:02:33;;;;;;;2.15;1.20;;;21.90;99.90;;;;;;5089677;28;20201;-74
2021/08/01 12:05:01;;;;;;;1.80;1.52;;;21.30;99.90;;;;;;5090388;28;20202;-74
2021/08/01 12:07:42;;;;;;;1.45;1.35;;;21.10;99.90;;;;;;5089321;28;20206;-75
2021/08/01 12:10:29;;;;;;;1.75;1.65;;;20.90;99.90;;;;;;5090446;28;20205;-75
2021/08/01 12:12:59;;;;;;;2.88;1.92;;;20.70;99.90;;;;;;5086468;28;20286;-74
2021/08/01 12:15:27;;;;;;;1.13;1.02;;;20.50;99.90;;;;;;5093602;28;20216;-74
2021/08/01 12:17:55;;;;;;;1.85;1.42;;;20.60;99.90;;;;;;5093810;28;20201;-74
2021/08/01 12:20:32;;;;;;;1.95;1.75;;;20.80;99.90;;;;;;5093717;28;20317;-73
2021/08/01 12:22:59;;;;;;;2.15;1.65;;;20.70;99.90;;;;;;5093634;28;20763;-74
2021/08/01 12:25:26;;;;;;;1.90;1.55;;;21.00;99.90;;;;;;5093132;28;20209;-74
2021/08/01 12:27:55;;;;;;;2.30;1.27;;;21.70;99.90;;;;;;5093413;28;20271;-75
2021/08/01 12:30:23;;;;;;;3.03;2.58;;;22.10;99.90;;;;;;5083803;28;20210;-74
2021/08/01 12:32:51;;;;;;;1.63;1.25;;;22.20;99.90;;;;;;5089138;28;20215;-74
2021/08/01 12:35:21;;;;;;;4.20;1.85;;;22.20;99.90;;;;;;5093834;28;20263;-74
2021/08/01 12:37:51;;;;;;;11.13;2.70;;;22.00;99.90;;;;;;5093532;28;20205;-74
2021/08/01 12:40:32;;;;;;;1.55;1.45;;;22.20;99.90;;;;;;5093361;28;20292;-74
2021/08/01 12:43:01;;;;;;;8.75;1.80;;;22.50;99.90;;;;;;5093295;28;20206;-74
2021/08/01 12:45:33;;;;;;;4.35;1.63;;;22.60;99.90;;;;;;5093100;28;20267;-74
2021/08/01 12:48:01;;;;;;;1.58;1.40;;;22.90;99.90;;;;;;5093026;28;20251;-73
2021/08/01 12:50:30;;;;;;;3.28;1.52;;;23.00;99.90;;;;;;5089923;28;20680;-74
2021/08/01 12:52:57;;;;;;;1.48;1.33;;;23.10;99.90;;;;;;5082129;28;20206;-74
2021/08/01 12:55:25;;;;;;;3.97;3.58;;;23.30;99.90;;;;;;5092345;28;20616;-74
2021/08/01 12:58:03;;;;;;;2.58;1.27;;;23.60;99.90;;;;;;5093487;28;20216;-74